Aérodrome :
LOGIN :

S'inscrire | Disclaimer

   EN    FR    IT 

 










Légende :    VFR   VFR Marginal   IFR   IFR Intensif   IFR Très Intensif
Visi : 
Plafond : 
>= 8 km
>= 3000ft
5 à 8 km
1000 à 3000 ft
1500m à 5 km
500 à 1000 ft
800 à 1500m
200 à 500 ft
< 800m
< 200 ft
Symboles :   Orages  Brouillard  Fortes neiges  Fortes précipitations  Vent > 20 kt
SIGMETs :   Divers  Orages  Givrage  Turbulence  Onde Orograph.  Cendres Volcan.







- Altitude de l'aérodrome : 49 ft
- Code IATA : SEN
- Voir les cartes d'approche


EGMC - Southend

DERNIER METAR :
  • 291720Z 15011KT 9999 FEW041 15/03 Q1013

METARs EXPIRÉS :
  • 291650Z 15011KT 9999 FEW041 15/03 Q1013
  • 291620Z 14010KT 9999 FEW040 15/03 Q1013
  • 291550Z 15010KT 9999 FEW040 15/02 Q1013
  • 291520Z 12008KT 9999 FEW040 14/04 Q1014
  • 291450Z 12008KT 9999 FEW040 14/04 Q1014

TAF TAF EGMC
Valide du 29 à 18h jusqu'au 30 à 03h UTC


291659Z 2918/3003 14012KT 9999 SCT045
Pas de NOTAMs connus pour ce terrain.



MET'MAP, la Météo Aéronautique d'un coup d'oeil ! - Copyright ORBIFLY Décembre 2007 - Disclaimer

ORBIFLY MET'MAP TEAM :

Programmation & Développement : Alexandra Zaïnal
Conception & Développement : Baudouin d'Aumeries
Co-Programmation & Développement : Marc-Olivier Méhu
Soutien technique & logistique : Manuel Goepfert

Contact : metmap@orbifly.com




SOURCES & CREDITS :

   NOAA